Flight Track Log - Related Links

Times and Time Zones

All times are in EDT time to prevent confusion due to time zone crossing. See the LOF3416 flight status page for this flight to view local times or setup timezone preferences in your user account.

Time Position Orientation Groundspeed Altitude Reporting Facility
EDT Latitude Longitude Course Direction KTS MPH feet Rate Location/Type
Sun 10:21:03 PM 38.9500 -77.5167 237° Southwest 179 206 1,700  Level Potomac TRACON
Sun 10:22:03 PM 38.9167 -77.5833 237° Southwest 227 261 3,500 1,700 Climbing Potomac TRACON
Sun 10:23:03 PM 38.9000 -77.6667 256° West 244 281 5,100 1,674 Climbing Potomac TRACON
Sun 10:23:29 PM 38.9053 -77.7122 278° West 256 295 5,900 2,163 Climbing Washington Center
Sun 10:24:29 PM 38.9139 -77.8033 277° West 272 313 8,200 2,400 Climbing Washington Center
Sun 10:25:29 PM 38.9225 -77.9022 276° West 287 330 10,700 2,100 Climbing Washington Center
Sun 10:26:29 PM 38.9350 -78.0067 279° West 304 350 12,400 1,800 Climbing Washington Center
Sun 10:27:29 PM 38.9494 -78.1219 279° West 321 369 14,300 1,850 Climbing Washington Center
Sun 10:28:29 PM 38.9614 -78.2372 278° West 327 376 16,100 2,000 Climbing Washington Center
Sun 10:29:29 PM 38.9650 -78.3522 272° West 327 376 18,300 1,650 Climbing Washington Center
Sun 10:30:29 PM 38.9686 -78.4669 272° West 327 376 19,400 1,200 Climbing Washington Center
Sun 10:31:29 PM 38.9742 -78.5875 273° West 327 376 20,700 1,300 Climbing Washington Center
Sun 10:32:29 PM 38.9772 -78.7106 272° West 335 386 22,000 1,300 Climbing Washington Center
Sun 10:33:29 PM 38.9803 -78.8361 272° West 348 400 23,300 1,350 Climbing Washington Center
Sun 10:34:29 PM 38.9850 -78.9644 273° West 359 413 24,700 1,350 Climbing Washington Center
Sun 10:35:29 PM 38.9875 -79.0928 271° West 364 419 26,000 1,200 Climbing Washington Center
Sun 10:36:29 PM 38.9900 -79.2183 272° West 364 419 27,100 1,000 Climbing Washington Center
Sun 10:37:29 PM 38.9922 -79.3494 271° West 364 419 28,000 400 Climbing Washington Center
Sun 10:38:29 PM 38.9964 -79.4858 272° West 375 432 27,900 -50 Descending Washington Center
Sun 10:39:29 PM 39.0003 -79.6169 272° West 395 455 27,900 50 Level Washington Center
Sun 10:40:29 PM 39.0031 -79.7775 271° West 415 478 28,000  Climbing Washington Center
Sun 10:41:29 PM 39.0061 -79.9300 272° West 426 490 27,900 -50 Descending Washington Center
Sun 10:42:29 PM 39.0069 -80.0794 270° West 426 490 27,900  Level Washington Center
Sun 10:43:38 PM 39.0075 -80.2339 270° West 424 488 27,900  Level Indianapolis Center
Sun 10:44:38 PM 39.0092 -80.3853 271° West 424 488 27,900  Level Indianapolis Center
Sun 10:45:39 PM 39.0189 -80.5367 275° West 427 491 27,900  Level Indianapolis Center
Sun 10:46:40 PM 39.0425 -80.6875 281° West 430 495 27,900  Level Indianapolis Center
Sun 10:47:40 PM 39.0625 -80.8372 280° West 427 491 27,900 -347 Level Indianapolis Center
Sun 10:48:41 PM 39.0842 -80.9875 281° West 428 493 27,200 -934 Descending Indianapolis Center
Sun 10:49:42 PM 39.1044 -81.1361 280° West 425 489 26,000 -1,131 Descending Indianapolis Center
Sun 10:50:43 PM 39.1253 -81.2839 280° West 422 486 24,900 -1,240 Descending Indianapolis Center
Sun 10:51:43 PM 39.1483 -81.4606 280° West 419 482 23,500 -1,289 Descending Indianapolis Center
Sun 10:52:44 PM 39.1686 -81.6072 280° West 419 482 22,300 -787 Descending Indianapolis Center
Sun 10:53:45 PM 39.1872 -81.7531 279° West 417 480 21,900 -198 Descending Indianapolis Center
Sun 10:54:45 PM 39.2047 -81.8956 279° West 408 470 21,900  Level Indianapolis Center
Sun 10:55:46 PM 39.2239 -82.0392 280° West 409 471 21,900  Level Indianapolis Center
Sun 10:56:47 PM 39.2428 -82.1858 279° West 415 478 21,900  Level Indianapolis Center
Sun 10:57:47 PM 39.2614 -82.3347 279° West 420 483 21,900 -545 Level Indianapolis Center
Sun 10:58:48 PM 39.2811 -82.4883 279° West 409 471 20,800 -1,426 Descending Indianapolis Center
Sun 10:59:49 PM 39.2981 -82.6283 279° West 393 452 19,000 -1,574 Descending Indianapolis Center
Sun 11:00:50 PM 39.3147 -82.7661 279° West 386 444 17,600 -1,587 Descending Indianapolis Center
Sun 11:01:50 PM 39.3311 -82.9072 279° West 391 450 15,800 -1,835 Descending Indianapolis Center
Sun 11:02:51 PM 39.3472 -83.0389 279° West 372 428 13,900 -1,869 Descending Indianapolis Center
Sun 11:03:52 PM 39.3631 -83.1708 279° West 368 423 12,000 -1,450 Descending Indianapolis Center
Sun 11:04:51 PM 39.3789 -83.3011 279° West 359 413 11,000 -655 Descending Indianapolis Center
Sun 11:05:51 PM 39.3972 -83.4247 281° West 353 406 10,700 -496 Descending Indianapolis Center
Sun 11:06:52 PM 39.4458 -83.5331 300° West 343 395 10,000 -344 Descending Indianapolis Center
Sun 11:07:53 PM 39.4972 -83.6314 304° West 333 383 10,000 -357 Level Indianapolis Center
Sun 11:09:00 PM 39.5403 -83.7564 294° West  Level FlightAware Approximate
Sun 11:09:57 PM 39.5967 -83.8294 294° West 300 345 8,900  Level Indianapolis Center
Sun 11:10:55 PM 39.6372 -83.9142 302° West 278 320 7,500 -1,554 Descending Indianapolis Center
Sun 11:11:49 PM 39.6700 -83.9781 304° West 254 292 6,000 -1,736 Descending Indianapolis Center
Sun 11:12:56 PM 39.7133 -84.0678 302° West 250 288 4,000 -1,417 Descending Indianapolis Center
Sun 11:13:56 PM 39.7494 -84.1403 303° West 239 275 3,000 -496 Descending Indianapolis Center
Sun 11:14:57 PM 39.7822 -84.2044 304° West 202 232 3,000  Level Indianapolis Center
Sun 11:15:58 PM 39.8075 -84.2539 304° West 155 178 3,000  Level Indianapolis Center

Login

Don't have an account? Register now (free) for customized features, flight alerts, and more!